Time;durP1;ratioP1;P1;durP2;ratioP2;P2;SDS_P1;SDS_P2;PMS_P1;PMS_P2;Temp;Humidity;BMP_temperature;BMP_pressure;BME280_temperature;BME280_humidity;BME280_pressure;Samples;Min_cycle;Max_cycle;Signal;HPM_P1;HPM_P2
2021/06/19 00:02:18;;;;;;;29.27;26.48;;;19.20;99.90;;;;;;5120429;27;20518;-81
2021/06/19 00:04:44;;;;;;;24.10;21.92;;;19.20;99.90;;;;;;5124889;27;20043;-80
2021/06/19 00:07:10;;;;;;;38.47;33.40;;;19.20;99.90;;;;;;5120147;27;20066;-80
2021/06/19 00:09:39;;;;;;;26.40;24.02;;;19.10;99.90;;;;;;5125103;27;20109;-81
2021/06/19 00:12:08;;;;;;;31.75;28.63;;;19.10;99.90;;;;;;5125305;27;20043;-81
2021/06/19 00:14:34;;;;;;;36.47;32.58;;;19.10;99.90;;;;;;5105466;27;20109;-81
2021/06/19 00:17:00;;;;;;;38.50;33.60;;;19.10;99.90;;;;;;5123450;27;20078;-81
2021/06/19 00:19:30;;;;;;;32.50;29.27;;;19.10;99.90;;;;;;5119495;27;20078;-81
2021/06/19 00:21:55;;;;;;;27.70;25.00;;;19.10;99.90;;;;;;5103433;27;20092;-81
2021/06/19 00:24:23;;;;;;;32.33;29.25;;;19.10;99.90;;;;;;5126237;27;20039;-80
2021/06/19 00:26:52;;;;;;;31.58;28.65;;;19.10;99.90;;;;;;5122230;27;20046;-82
2021/06/19 00:29:19;;;;;;;41.58;35.65;;;19.10;99.90;;;;;;5122630;27;20070;-80
2021/06/19 00:31:45;;;;;;;33.25;29.90;;;19.10;99.90;;;;;;5122416;27;20050;-81
2021/06/19 00:34:11;;;;;;;38.88;34.97;;;19.10;99.90;;;;;;5123204;27;20043;-81
2021/06/19 00:36:38;;;;;;;32.78;29.65;;;19.00;99.90;;;;;;5120978;27;20037;-81
2021/06/19 00:39:05;;;;;;;49.65;40.15;;;19.10;99.90;;;;;;5099193;27;20116;-81
2021/06/19 00:41:34;;;;;;;34.08;30.75;;;19.10;99.90;;;;;;5120468;27;20114;-80
2021/06/19 00:44:03;;;;;;;45.70;37.50;;;19.10;99.90;;;;;;5115142;27;20497;-80
2021/06/19 00:46:29;;;;;;;50.43;36.77;;;19.10;99.90;;;;;;5122008;27;20630;-81
2021/06/19 00:48:55;;;;;;;29.33;26.55;;;19.00;99.90;;;;;;5105723;27;20689;-80
2021/06/19 00:51:21;;;;;;;34.33;30.70;;;19.00;99.90;;;;;;5121626;27;20121;-80
2021/06/19 00:53:50;;;;;;;35.80;32.15;;;19.00;99.90;;;;;;5120912;27;20095;-81
2021/06/19 00:56:18;;;;;;;34.50;31.08;;;19.10;99.90;;;;;;5120742;27;20046;-81
2021/06/19 00:58:44;;;;;;;40.28;34.17;;;19.10;99.90;;;;;;5141472;27;21066;-81
2021/06/19 01:01:13;;;;;;;37.25;33.55;;;19.00;99.90;;;;;;5107014;27;20043;-81
2021/06/19 01:03:42;;;;;;;53.97;41.28;;;19.10;99.90;;;;;;5124083;27;20031;-80
2021/06/19 01:06:08;;;;;;;35.10;31.50;;;19.10;99.90;;;;;;5126598;27;20493;-80
2021/06/19 01:08:34;;;;;;;46.50;39.45;;;19.10;99.90;;;;;;5141780;27;20045;-80
2021/06/19 01:11:00;;;;;;;52.22;41.40;;;19.10;99.90;;;;;;5104766;27;20211;-80
2021/06/19 01:13:25;;;;;;;36.40;32.80;;;19.10;99.90;;;;;;5109981;27;20042;-81
2021/06/19 01:15:51;;;;;;;42.78;38.55;;;19.10;99.90;;;;;;5107075;27;20224;-80
2021/06/19 01:18:17;;;;;;;56.20;45.65;;;19.10;99.90;;;;;;5118637;27;20254;-81
2021/06/19 01:20:46;;;;;;;49.75;44.33;;;19.10;99.90;;;;;;5092967;27;20045;-80
2021/06/19 01:23:15;;;;;;;44.72;40.38;;;19.10;99.90;;;;;;5108946;27;20546;-80
2021/06/19 01:25:41;;;;;;;44.65;40.03;;;19.10;99.90;;;;;;5118352;27;20031;-81
2021/06/19 01:28:10;;;;;;;59.05;45.22;;;19.10;99.90;;;;;;5117983;27;20099;-81
2021/06/19 01:30:38;;;;;;;43.75;39.22;;;19.10;99.90;;;;;;5118372;27;20050;-80
2021/06/19 01:33:04;;;;;;;47.00;42.05;;;19.10;99.90;;;;;;5138334;27;20138;-81
2021/06/19 01:35:30;;;;;;;52.08;45.65;;;19.10;99.90;;;;;;5123363;27;20526;-81
2021/06/19 01:37:58;;;;;;;46.08;41.30;;;19.20;99.90;;;;;;5123367;27;20031;-80
2021/06/19 01:40:29;;;;;;;56.65;47.47;;;19.20;99.90;;;;;;5108651;27;20119;-81
2021/06/19 01:42:56;;;;;;;58.30;50.15;;;19.20;99.90;;;;;;5123120;27;20560;-79
2021/06/19 01:45:30;;;;;;;57.05;49.42;;;19.20;99.90;;;;;;5125801;27;20065;-81
2021/06/19 01:48:01;;;;;;;58.72;47.92;;;19.20;99.90;;;;;;5120051;27;20035;-80
2021/06/19 01:50:30;;;;;;;51.72;46.13;;;19.20;99.90;;;;;;5132054;27;20035;-80
2021/06/19 01:52:56;;;;;;;48.80;43.60;;;19.20;99.90;;;;;;5088431;27;20047;-81
2021/06/19 01:55:23;;;;;;;52.95;47.22;;;19.20;99.90;;;;;;5125811;27;20043;-80
2021/06/19 01:57:59;;;;;;;48.50;43.40;;;19.20;99.90;;;;;;5123494;27;20504;-80
2021/06/19 02:00:31;;;;;;;59.15;48.95;;;19.20;99.90;;;;;;5122198;27;20047;-80
2021/06/19 02:02:58;;;;;;;70.13;52.65;;;19.20;99.90;;;;;;5140974;27;20039;-80
2021/06/19 02:05:25;;;;;;;55.58;48.63;;;19.20;99.90;;;;;;5098495;27;20047;-81
2021/06/19 02:07:51;;;;;;;54.50;48.67;;;19.20;99.90;;;;;;5090983;27;20143;-81
2021/06/19 02:10:26;;;;;;;59.85;50.10;;;19.20;99.90;;;;;;5123293;27;20039;-81
2021/06/19 02:12:52;;;;;;;60.08;51.08;;;19.20;99.90;;;;;;5118092;27;20041;-80
2021/06/19 02:15:22;;;;;;;59.92;51.60;;;19.30;99.90;;;;;;5116292;27;20047;-80
2021/06/19 02:17:49;;;;;;;66.13;53.85;;;19.20;99.90;;;;;;5103927;27;20039;-80
2021/06/19 02:20:17;;;;;;;51.30;45.95;;;19.30;99.90;;;;;;5140996;27;20071;-80
2021/06/19 02:22:43;;;;;;;50.38;44.45;;;19.20;99.90;;;;;;5142514;27;20035;-81
2021/06/19 02:25:12;;;;;;;60.95;51.40;;;19.20;99.90;;;;;;5125460;27;20461;-81
2021/06/19 02:28:06;;;;;;;52.30;46.45;;;19.20;99.90;;;;;;5141661;27;20035;-80
2021/06/19 02:30:40;;;;;;;49.28;44.10;;;19.20;99.90;;;;;;5119602;27;20054;-81
2021/06/19 02:33:06;;;;;;;51.17;45.63;;;19.20;99.90;;;;;;5133180;27;20537;-81
2021/06/19 02:35:34;;;;;;;52.70;46.97;;;19.20;99.90;;;;;;5104123;27;20035;-81
2021/06/19 02:38:00;;;;;;;47.63;42.67;;;19.20;99.90;;;;;;5111978;28;20110;-80
2021/06/19 02:40:28;;;;;;;48.35;43.38;;;19.20;99.90;;;;;;5130864;27;20046;-80
2021/06/19 02:42:54;;;;;;;44.30;39.78;;;19.20;99.90;;;;;;5124326;27;20550;-81
2021/06/19 02:45:20;;;;;;;45.70;40.88;;;19.20;99.90;;;;;;5124230;27;20038;-81
2021/06/19 02:47:49;;;;;;;45.08;40.25;;;19.20;99.90;;;;;;5120462;27;20054;-80
2021/06/19 02:50:16;;;;;;;43.90;39.55;;;19.20;99.90;;;;;;5132042;27;20041;-80
2021/06/19 02:52:43;;;;;;;44.78;39.90;;;19.30;99.90;;;;;;5107193;27;20531;-81
2021/06/19 02:55:15;;;;;;;41.42;37.30;;;19.30;99.90;;;;;;5111451;27;20043;-81
2021/06/19 02:57:41;;;;;;;41.40;37.22;;;19.30;99.90;;;;;;5133266;27;20043;-80
2021/06/19 03:00:10;;;;;;;36.78;33.05;;;19.30;99.90;;;;;;5120276;27;20063;-80
2021/06/19 03:02:36;;;;;;;35.60;32.13;;;19.30;99.90;;;;;;5140903;27;20046;-79
2021/06/19 03:05:03;;;;;;;34.05;30.67;;;19.30;99.90;;;;;;5147279;27;20058;-81
2021/06/19 03:07:32;;;;;;;36.38;32.72;;;19.30;99.90;;;;;;5124164;27;20027;-81
2021/06/19 03:09:58;;;;;;;35.83;31.92;;;19.30;99.90;;;;;;5121659;27;20049;-80
2021/06/19 03:12:28;;;;;;;38.92;34.47;;;19.40;99.90;;;;;;5139941;27;20053;-81
2021/06/19 03:14:54;;;;;;;33.27;30.10;;;19.30;99.90;;;;;;5146643;27;20043;-80
2021/06/19 03:17:22;;;;;;;31.00;27.88;;;19.30;99.90;;;;;;5123541;27;20051;-80
2021/06/19 03:19:48;;;;;;;32.83;29.58;;;19.30;99.90;;;;;;5112913;27;20067;-80
2021/06/19 03:22:14;;;;;;;28.92;25.85;;;19.30;99.90;;;;;;5146615;27;20039;-79
2021/06/19 03:24:41;;;;;;;28.83;25.83;;;19.30;99.90;;;;;;5101475;27;20035;-80
2021/06/19 03:27:12;;;;;;;30.30;27.08;;;19.30;99.90;;;;;;5123970;27;20183;-80
2021/06/19 03:29:39;;;;;;;27.27;24.48;;;19.30;99.90;;;;;;5122741;27;20034;-80
2021/06/19 03:32:06;;;;;;;28.25;25.38;;;19.30;99.90;;;;;;5136056;27;20119;-79
2021/06/19 03:34:32;;;;;;;30.25;25.60;;;19.30;99.90;;;;;;5123644;27;20110;-80
2021/06/19 03:36:59;;;;;;;27.65;24.80;;;19.30;99.90;;;;;;5138003;27;20039;-81
2021/06/19 03:39:34;;;;;;;25.20;22.50;;;19.20;99.90;;;;;;5140240;27;20100;-80
2021/06/19 03:42:01;;;;;;;25.77;23.13;;;19.20;99.90;;;;;;5120644;27;20053;-80
2021/06/19 03:44:30;;;;;;;26.77;24.08;;;19.20;99.90;;;;;;5123240;27;20039;-79
2021/06/19 03:46:56;;;;;;;25.98;23.33;;;19.20;99.90;;;;;;5131870;27;20031;-80
2021/06/19 03:49:23;;;;;;;29.52;26.50;;;19.20;99.90;;;;;;5109425;27;20033;-80
2021/06/19 03:51:49;;;;;;;28.90;26.00;;;19.20;99.90;;;;;;5128609;27;20621;-80
2021/06/19 03:54:15;;;;;;;29.35;26.33;;;19.20;99.90;;;;;;5112673;27;20039;-80
2021/06/19 03:56:42;;;;;;;31.13;27.83;;;19.20;99.90;;;;;;5141965;27;20028;-80
2021/06/19 03:59:09;;;;;;;28.10;25.23;;;19.20;99.90;;;;;;5112452;27;20114;-80
2021/06/19 04:01:35;;;;;;;30.15;27.27;;;19.20;99.90;;;;;;5124056;27;20130;-79
2021/06/19 04:04:01;;;;;;;30.15;27.17;;;19.20;99.90;;;;;;5124762;27;20050;-79
2021/06/19 04:06:27;;;;;;;28.58;25.98;;;19.20;99.90;;;;;;5124685;27;20568;-80
2021/06/19 04:08:53;;;;;;;29.88;25.70;;;19.20;99.90;;;;;;5128839;27;20564;-80
2021/06/19 04:11:19;;;;;;;29.50;26.55;;;19.20;99.90;;;;;;5131124;27;20066;-80
2021/06/19 04:13:44;;;;;;;30.90;27.73;;;19.20;99.90;;;;;;5127839;27;20078;-81
2021/06/19 04:16:11;;;;;;;29.05;25.52;;;19.20;99.90;;;;;;5110650;27;20046;-80
2021/06/19 04:18:38;;;;;;;27.80;25.10;;;19.20;99.90;;;;;;5126721;27;20034;-80
2021/06/19 04:21:05;;;;;;;27.65;24.98;;;19.20;99.90;;;;;;5122216;27;20038;-79
2021/06/19 04:23:31;;;;;;;26.52;23.92;;;19.20;99.90;;;;;;5114297;27;20107;-80
2021/06/19 04:26:01;;;;;;;27.73;24.90;;;19.20;99.90;;;;;;5140202;27;20043;-79
2021/06/19 04:28:28;;;;;;;26.10;23.50;;;19.30;99.90;;;;;;5128541;27;20039;-80
2021/06/19 04:30:59;;;;;;;26.67;24.08;;;19.20;99.90;;;;;;5104142;27;20035;-80
2021/06/19 04:33:26;;;;;;;27.10;24.30;;;19.20;99.90;;;;;;5128413;27;20039;-79
2021/06/19 04:35:51;;;;;;;26.83;24.35;;;19.20;99.90;;;;;;5111293;27;20050;-79
2021/06/19 04:38:17;;;;;;;28.15;25.23;;;19.30;99.90;;;;;;5098059;27;20486;-80
2021/06/19 04:43:12;;;;;;;29.45;24.88;;;19.40;99.90;;;;;;5141305;27;20118;-80
2021/06/19 04:45:38;;;;;;;26.48;23.88;;;19.40;99.90;;;;;;5137143;27;20121;-80
2021/06/19 04:48:06;;;;;;;26.80;23.98;;;19.50;99.90;;;;;;5116125;27;20047;-81
2021/06/19 04:50:35;;;;;;;27.05;24.42;;;19.50;99.90;;;;;;5138103;27;20042;-80
2021/06/19 04:53:11;;;;;;;27.90;24.50;;;19.60;99.90;;;;;;5103464;27;20049;-81
2021/06/19 04:55:40;;;;;;;27.75;24.85;;;19.60;99.90;;;;;;5121211;27;20031;-81
2021/06/19 04:58:09;;;;;;;27.15;24.40;;;19.70;99.90;;;;;;5103091;27;20061;-81
2021/06/19 05:00:35;;;;;;;29.75;26.63;;;19.70;99.90;;;;;;5120213;27;20043;-81
2021/06/19 05:03:01;;;;;;;29.38;26.30;;;19.80;99.90;;;;;;5142078;27;20035;-81
2021/06/19 05:05:30;;;;;;;29.42;26.20;;;19.90;99.90;;;;;;5128802;27;20118;-81
2021/06/19 05:07:57;;;;;;;31.20;27.17;;;19.90;99.90;;;;;;5126157;27;20036;-81
2021/06/19 05:10:23;;;;;;;30.45;27.25;;;19.90;99.90;;;;;;5119064;27;20092;-81
2021/06/19 05:12:49;;;;;;;32.15;28.52;;;19.90;99.90;;;;;;5119471;27;20039;-80
2021/06/19 05:15:26;;;;;;;27.88;24.77;;;20.00;99.90;;;;;;5124321;27;20041;-80
2021/06/19 05:17:53;;;;;;;31.00;27.83;;;19.90;99.90;;;;;;5133132;27;20157;-80
2021/06/19 05:20:19;;;;;;;29.52;26.73;;;19.90;99.90;;;;;;5147307;27;20031;-80
2021/06/19 05:22:46;;;;;;;30.30;27.15;;;19.90;99.90;;;;;;5131771;27;20038;-81
2021/06/19 05:25:13;;;;;;;34.45;28.75;;;19.90;99.90;;;;;;5119894;27;20124;-80
2021/06/19 05:27:45;;;;;;;32.70;26.85;;;19.80;99.90;;;;;;5143349;27;20503;-80
2021/06/19 05:30:13;;;;;;;32.33;28.15;;;19.80;99.90;;;;;;5119220;27;20496;-79
2021/06/19 05:32:39;;;;;;;31.80;28.38;;;19.80;99.90;;;;;;5111045;27;20039;-80
2021/06/19 05:35:11;;;;;;;33.38;29.77;;;19.80;99.90;;;;;;5131430;27;20051;-79
2021/06/19 05:37:38;;;;;;;31.65;27.38;;;19.80;99.90;;;;;;5118359;27;20035;-80
2021/06/19 05:40:05;;;;;;;33.28;28.27;;;19.90;99.90;;;;;;5142768;27;20035;-82
2021/06/19 05:42:32;;;;;;;31.20;26.52;;;19.90;99.90;;;;;;5108700;27;20050;-81
2021/06/19 05:45:01;;;;;;;29.63;26.60;;;19.80;99.90;;;;;;5109564;27;20041;-81
2021/06/19 05:47:29;;;;;;;29.92;26.73;;;19.90;99.90;;;;;;5141264;27;20066;-81
2021/06/19 05:49:55;;;;;;;29.10;26.00;;;19.90;99.70;;;;;;5123709;27;20489;-81
2021/06/19 05:52:22;;;;;;;27.92;24.95;;;19.90;99.50;;;;;;5127398;27;20090;-82
2021/06/19 05:54:48;;;;;;;29.92;26.23;;;19.90;99.30;;;;;;5127977;27;20039;-80
2021/06/19 05:57:14;;;;;;;31.73;25.27;;;19.90;99.30;;;;;;5131197;27;20047;-81
2021/06/19 05:59:40;;;;;;;29.50;24.88;;;20.00;99.30;;;;;;5139192;27;20631;-80
2021/06/19 06:02:06;;;;;;;27.92;24.30;;;20.10;99.30;;;;;;5135460;27;20027;-81
2021/06/19 06:04:33;;;;;;;27.75;24.50;;;20.10;99.20;;;;;;5106166;27;20039;-82
2021/06/19 06:07:00;;;;;;;27.38;24.48;;;20.20;99.00;;;;;;5121805;27;20126;-82
2021/06/19 06:09:25;;;;;;;24.27;21.75;;;20.20;99.00;;;;;;5121487;27;20035;-81
2021/06/19 06:11:54;;;;;;;31.05;24.50;;;20.20;98.70;;;;;;5105158;27;20043;-81
2021/06/19 06:14:21;;;;;;;22.73;20.30;;;20.30;98.70;;;;;;5136674;27;20045;-81
2021/06/19 06:16:47;;;;;;;27.77;22.52;;;20.20;98.10;;;;;;5120639;27;20485;-79
2021/06/19 06:19:15;;;;;;;24.70;22.13;;;20.20;98.10;;;;;;5105413;27;20113;-82
2021/06/19 06:21:44;;;;;;;24.70;21.80;;;20.20;98.00;;;;;;5143073;27;20038;-81
2021/06/19 06:24:12;;;;;;;24.95;22.33;;;20.20;98.10;;;;;;5107675;27;20442;-81
2021/06/19 06:26:38;;;;;;;25.48;22.67;;;20.10;98.20;;;;;;5145743;27;20043;-80
2021/06/19 06:29:04;;;;;;;25.17;21.83;;;20.20;98.30;;;;;;5107847;27;20394;-80
2021/06/19 06:31:34;;;;;;;24.52;21.92;;;20.30;97.90;;;;;;5136702;27;20071;-80
2021/06/19 06:34:00;;;;;;;25.77;22.02;;;20.30;97.80;;;;;;5109951;27;20039;-81
2021/06/19 06:36:26;;;;;;;26.38;22.58;;;20.40;97.90;;;;;;5144512;27;20401;-80
2021/06/19 06:38:52;;;;;;;28.60;24.55;;;20.40;97.50;;;;;;5123405;27;20070;-78
2021/06/19 06:41:18;;;;;;;28.42;24.08;;;20.50;97.40;;;;;;5092335;27;20047;-78
2021/06/19 06:43:44;;;;;;;27.17;23.80;;;20.50;97.10;;;;;;5105689;27;20294;-79
2021/06/19 06:46:10;;;;;;;27.52;23.30;;;20.60;97.00;;;;;;5147076;27;20482;-80
2021/06/19 06:48:36;;;;;;;30.02;24.27;;;20.60;96.70;;;;;;5107916;27;20074;-78
2021/06/19 06:51:02;;;;;;;28.98;25.27;;;20.60;96.60;;;;;;5128279;27;20049;-79
2021/06/19 06:53:30;;;;;;;27.38;24.30;;;20.70;96.70;;;;;;5129604;27;20051;-78
2021/06/19 06:55:56;;;;;;;26.55;23.65;;;20.80;96.60;;;;;;5124478;27;20026;-78
2021/06/19 06:58:22;;;;;;;28.15;22.33;;;20.90;96.30;;;;;;5121443;27;20421;-80
2021/06/19 07:00:48;;;;;;;25.20;20.38;;;21.10;96.00;;;;;;5125191;27;20049;-80
2021/06/19 07:03:14;;;;;;;28.10;22.75;;;21.10;95.20;;;;;;5142729;27;20059;-78
2021/06/19 07:05:40;;;;;;;27.75;22.10;;;21.00;95.10;;;;;;5120191;27;20043;-79
2021/06/19 07:08:06;;;;;;;29.77;23.08;;;20.90;95.30;;;;;;5094293;27;20030;-80
2021/06/19 07:10:32;;;;;;;30.63;23.75;;;20.80;95.20;;;;;;5109110;27;20049;-78
2021/06/19 07:12:58;;;;;;;28.35;22.20;;;20.80;95.20;;;;;;5129240;27;20114;-78
2021/06/19 07:15:24;;;;;;;28.85;23.45;;;20.80;94.60;;;;;;5113043;27;20046;-78
2021/06/19 07:17:50;;;;;;;31.45;22.85;;;20.70;94.80;;;;;;5108011;27;20041;-79
2021/06/19 07:20:18;;;;;;;28.27;22.55;;;20.80;95.30;;;;;;5122049;27;20420;-80
2021/06/19 07:22:43;;;;;;;32.30;26.02;;;20.90;94.70;;;;;;5125535;27;20069;-79
2021/06/19 07:25:10;;;;;;;29.40;24.63;;;21.00;95.30;;;;;;5125890;27;20066;-80
2021/06/19 07:27:36;;;;;;;28.90;23.65;;;21.00;94.70;;;;;;5108971;27;20031;-78
2021/06/19 07:30:05;;;;;;;32.15;24.77;;;21.00;94.80;;;;;;5145442;27;20069;-79
2021/06/19 07:32:31;;;;;;;34.58;25.45;;;20.90;95.00;;;;;;5107475;27;20046;-80
2021/06/19 07:35:00;;;;;;;29.80;22.92;;;20.80;94.70;;;;;;5089309;27;20043;-80
2021/06/19 07:37:26;;;;;;;32.63;24.63;;;20.70;94.80;;;;;;5113564;27;20490;-79
2021/06/19 07:39:53;;;;;;;28.90;23.42;;;20.60;94.90;;;;;;5127579;27;20035;-78
2021/06/19 07:42:21;;;;;;;29.58;23.85;;;20.60;94.60;;;;;;5111940;27;20552;-78
2021/06/19 07:44:50;;;;;;;28.85;22.10;;;20.50;94.70;;;;;;5140542;27;20448;-79
2021/06/19 07:47:16;;;;;;;27.00;22.08;;;20.50;94.30;;;;;;5127076;27;20068;-79
2021/06/19 07:49:42;;;;;;;29.80;23.70;;;20.50;94.30;;;;;;5104213;27;20041;-78
2021/06/19 07:52:09;;;;;;;29.42;23.15;;;20.40;94.40;;;;;;5117424;27;20171;-79
2021/06/19 07:54:38;;;;;;;32.10;23.73;;;20.40;94.40;;;;;;5134444;27;20031;-79
2021/06/19 07:57:07;;;;;;;31.30;24.95;;;20.30;94.40;;;;;;5139688;27;20043;-78
2021/06/19 07:59:36;;;;;;;31.75;23.10;;;20.30;94.60;;;;;;5124498;27;20038;-78
2021/06/19 08:02:03;;;;;;;31.40;25.27;;;20.40;94.80;;;;;;5140753;27;20035;-80
2021/06/19 08:04:28;;;;;;;29.65;24.10;;;20.40;94.80;;;;;;5142102;27;20084;-78
2021/06/19 08:06:54;;;;;;;33.70;24.60;;;20.40;95.00;;;;;;5125486;27;20054;-79
2021/06/19 08:09:20;;;;;;;32.00;24.92;;;20.50;95.20;;;;;;5122940;27;20105;-79
2021/06/19 08:11:46;;;;;;;31.33;25.55;;;20.60;95.10;;;;;;5091201;27;20060;-78
2021/06/19 08:14:13;;;;;;;32.33;25.63;;;20.70;94.80;;;;;;5122182;27;20030;-79
2021/06/19 08:16:41;;;;;;;35.13;27.35;;;20.80;94.90;;;;;;5145548;27;20046;-79
2021/06/19 08:19:07;;;;;;;36.13;28.83;;;20.70;94.70;;;;;;5125639;27;20049;-78
2021/06/19 08:21:33;;;;;;;36.78;28.77;;;20.70;94.80;;;;;;5110647;27;20513;-78
2021/06/19 08:23:59;;;;;;;36.67;27.70;;;20.60;94.90;;;;;;5106352;27;20041;-79
2021/06/19 08:26:24;;;;;;;33.55;27.23;;;20.50;94.90;;;;;;5143759;27;20027;-79
2021/06/19 08:28:50;;;;;;;35.92;28.15;;;20.50;95.20;;;;;;5089590;27;20038;-77
2021/06/19 08:31:17;;;;;;;34.17;27.30;;;20.60;95.30;;;;;;5142133;27;20034;-78
2021/06/19 08:33:43;;;;;;;34.78;27.85;;;20.80;95.20;;;;;;5137714;27;20494;-80
2021/06/19 08:36:09;;;;;;;33.05;25.73;;;20.90;94.50;;;;;;5126823;27;20404;-80
2021/06/19 08:38:35;;;;;;;28.90;25.58;;;20.90;94.70;;;;;;5109605;27;20062;-79
2021/06/19 08:41:01;;;;;;;28.15;24.95;;;21.10;94.00;;;;;;5124466;27;20374;-78
2021/06/19 08:43:30;;;;;;;25.13;21.33;;;21.40;93.10;;;;;;5129964;27;20058;-80
2021/06/19 08:46:00;;;;;;;25.90;23.02;;;21.60;92.90;;;;;;5125921;27;20042;-81
2021/06/19 08:48:26;;;;;;;25.33;22.65;;;21.80;92.70;;;;;;5128779;27;20038;-78
2021/06/19 08:50:53;;;;;;;26.30;23.38;;;21.90;91.80;;;;;;5124743;27;20050;-79
2021/06/19 08:53:20;;;;;;;28.55;25.45;;;22.00;92.20;;;;;;5127513;27;20046;-80
2021/06/19 08:55:46;;;;;;;25.67;22.50;;;22.00;92.10;;;;;;5110827;27;20529;-79
2021/06/19 08:58:14;;;;;;;26.58;23.60;;;22.10;91.70;;;;;;5112047;27;20107;-80
2021/06/19 09:00:41;;;;;;;23.92;21.33;;;22.20;91.80;;;;;;5124326;27;20039;-79
2021/06/19 09:03:22;;;;;;;25.17;21.42;;;22.40;91.30;;;;;;5123729;27;20133;-80
2021/06/19 09:05:48;;;;;;;25.52;22.05;;;22.50;91.10;;;;;;5126622;27;20054;-80
2021/06/19 09:08:15;;;;;;;22.80;20.40;;;22.40;91.00;;;;;;5138521;27;20039;-80
2021/06/19 09:10:41;;;;;;;19.92;17.05;;;22.40;91.00;;;;;;5139899;27;20042;-77
2021/06/19 09:13:17;;;;;;;19.15;16.80;;;22.50;91.20;;;;;;5144573;27;20054;-81
2021/06/19 09:15:46;;;;;;;20.10;17.17;;;22.60;91.20;;;;;;5124898;27;20488;-82
2021/06/19 09:18:28;;;;;;;23.98;19.27;;;22.50;90.90;;;;;;5137702;27;20126;-80
2021/06/19 09:20:55;;;;;;;21.02;18.58;;;22.40;89.50;;;;;;5141615;27;20038;-81
2021/06/19 09:23:37;;;;;;;23.08;20.67;;;22.40;90.50;;;;;;5108678;27;20053;-81
2021/06/19 09:26:21;;;;;;;23.23;20.88;;;22.40;90.10;;;;;;5121217;27;20095;-80
2021/06/19 09:29:06;;;;;;;22.63;20.33;;;22.30;90.30;;;;;;5143080;27;20046;-81
2021/06/19 09:31:35;;;;;;;24.48;21.98;;;22.30;90.30;;;;;;5126519;27;20066;-79
2021/06/19 09:34:07;;;;;;;24.88;22.05;;;22.20;90.30;;;;;;5101727;27;20435;-79
2021/06/19 09:36:38;;;;;;;26.10;23.33;;;22.20;90.90;;;;;;5123460;27;20063;-82
2021/06/19 09:39:11;;;;;;;24.83;22.17;;;22.30;90.70;;;;;;5122524;27;20042;-81
2021/06/19 09:41:43;;;;;;;29.88;24.05;;;22.30;90.70;;;;;;5127333;27;20481;-80
2021/06/19 09:44:09;;;;;;;27.55;24.60;;;22.40;90.60;;;;;;5144003;27;20039;-80
2021/06/19 09:46:38;;;;;;;26.73;23.40;;;22.40;90.80;;;;;;5122078;27;20031;-82
2021/06/19 09:49:17;;;;;;;26.98;22.63;;;22.50;90.90;;;;;;5146730;27;20027;-82
2021/06/19 09:51:48;;;;;;;29.85;22.83;;;22.50;90.90;;;;;;5122099;27;20081;-79
2021/06/19 09:54:15;;;;;;;27.35;23.98;;;22.40;90.80;;;;;;5108007;27;20045;-80
2021/06/19 09:56:52;;;;;;;28.00;23.20;;;22.30;90.80;;;;;;5139369;27;20111;-81
2021/06/19 09:59:24;;;;;;;30.08;24.17;;;22.10;91.10;;;;;;5125889;27;20031;-82
2021/06/19 10:01:50;;;;;;;30.50;25.48;;;22.00;91.40;;;;;;5125011;27;20143;-81
2021/06/19 10:04:20;;;;;;;27.38;22.88;;;21.80;91.80;;;;;;5122421;27;20126;-81
2021/06/19 10:06:46;;;;;;;31.60;27.25;;;21.70;91.50;;;;;;5120338;27;20102;-80
2021/06/19 10:09:16;;;;;;;29.67;26.48;;;21.60;92.00;;;;;;5099465;27;20092;-81
2021/06/19 10:11:44;;;;;;;30.10;26.73;;;21.60;92.40;;;;;;5128031;27;20102;-80
2021/06/19 10:14:16;;;;;;;32.28;27.88;;;21.50;92.40;;;;;;5119098;27;20122;-80
2021/06/19 10:16:43;;;;;;;29.75;26.58;;;21.70;92.60;;;;;;5124412;27;20470;-80
2021/06/19 10:19:09;;;;;;;30.52;26.70;;;21.70;92.30;;;;;;5145018;27;20042;-80
2021/06/19 10:21:35;;;;;;;28.13;25.30;;;21.60;92.00;;;;;;5141787;27;20114;-79
2021/06/19 10:24:02;;;;;;;28.83;25.80;;;21.60;92.30;;;;;;5119610;27;20062;-81
2021/06/19 10:26:29;;;;;;;29.25;25.05;;;21.60;92.40;;;;;;5144379;27;20046;-78
2021/06/19 10:29:02;;;;;;;25.77;23.15;;;21.60;92.40;;;;;;5120226;27;20054;-80
2021/06/19 10:31:35;;;;;;;25.35;22.80;;;21.70;92.70;;;;;;5122724;27;20042;-81
2021/06/19 10:34:24;;;;;;;25.08;22.55;;;21.90;92.10;;;;;;5106737;27;20485;-78
2021/06/19 10:36:56;;;;;;;24.65;21.92;;;22.40;91.90;;;;;;5139536;27;20159;-79
2021/06/19 10:39:33;;;;;;;22.00;19.80;;;22.70;90.80;;;;;;5139706;27;20038;-80
2021/06/19 10:42:00;;;;;;;22.20;20.17;;;22.90;88.40;;;;;;5123668;27;20930;-81
2021/06/19 10:44:49;;;;;;;21.00;19.02;;;22.90;89.10;;;;;;5127072;27;20031;-80
2021/06/19 10:47:17;;;;;;;20.57;18.60;;;22.90;88.40;;;;;;5122963;27;20121;-81
2021/06/19 10:49:44;;;;;;;18.55;16.70;;;22.90;88.90;;;;;;5137670;27;20043;-80
2021/06/19 10:52:28;;;;;;;18.00;16.35;;;22.90;87.90;;;;;;5136407;27;20059;-80
2021/06/19 10:55:14;;;;;;;17.65;15.95;;;22.90;88.60;;;;;;5117528;27;20043;-79
2021/06/19 10:57:55;;;;;;;18.85;17.23;;;22.90;88.40;;;;;;5129378;27;20117;-79
2021/06/19 11:00:26;;;;;;;18.65;16.95;;;22.90;87.40;;;;;;5136499;27;20047;-78
2021/06/19 11:02:54;;;;;;;17.90;16.13;;;22.90;88.80;;;;;;5114318;27;20039;-79
2021/06/19 11:05:45;;;;;;;18.88;16.95;;;22.90;88.70;;;;;;5135264;27;20046;-79
2021/06/19 11:08:15;;;;;;;18.60;16.90;;;23.00;89.80;;;;;;5116926;27;20054;-78
2021/06/19 11:10:44;;;;;;;18.80;17.08;;;23.10;88.90;;;;;;5112132;27;20051;-83
2021/06/19 11:13:28;;;;;;;20.30;18.55;;;23.30;90.10;;;;;;5118648;27;20043;-80
2021/06/19 11:16:05;;;;;;;21.67;19.83;;;23.50;89.20;;;;;;5134335;27;20616;-78
2021/06/19 11:18:50;;;;;;;20.80;18.98;;;23.50;86.20;;;;;;5122933;27;20118;-80
2021/06/19 11:21:26;;;;;;;23.00;20.88;;;23.30;86.40;;;;;;5122408;27;20034;-81
2021/06/19 11:24:07;;;;;;;25.23;22.90;;;23.20;87.20;;;;;;5121854;27;20039;-81
2021/06/19 11:29:38;;;;;;;20.95;19.00;;;23.00;87.00;;;;;;5135815;27;20042;-81
2021/06/19 11:32:36;;;;;;;19.80;17.88;;;22.90;87.60;;;;;;5134513;27;20830;-80
2021/06/19 11:35:20;;;;;;;20.45;18.65;;;23.00;87.80;;;;;;5101304;27;20059;-80
2021/06/19 11:37:59;;;;;;;19.48;17.52;;;23.30;87.00;;;;;;5118137;27;20023;-78
2021/06/19 11:40:27;;;;;;;22.00;19.70;;;23.40;87.10;;;;;;5115337;27;20396;-79
2021/06/19 11:42:53;;;;;;;22.20;20.20;;;23.40;88.00;;;;;;5117205;27;20035;-81
2021/06/19 11:45:22;;;;;;;19.45;17.75;;;23.40;87.80;;;;;;5116091;27;20027;-79
2021/06/19 11:48:18;;;;;;;20.13;18.35;;;23.30;88.80;;;;;;5101464;27;20370;-79
2021/06/19 11:50:46;;;;;;;19.55;17.65;;;23.20;89.60;;;;;;5129945;27;20049;-79
2021/06/19 11:53:32;;;;;;;21.15;19.35;;;23.30;90.30;;;;;;5117048;27;20047;-79
2021/06/19 11:56:13;;;;;;;20.42;18.63;;;23.40;89.00;;;;;;5130070;27;20461;-77
2021/06/19 11:58:49;;;;;;;17.45;15.85;;;23.30;88.70;;;;;;5100164;27;20130;-77
2021/06/19 12:01:21;;;;;;;17.60;16.10;;;23.30;89.90;;;;;;5120631;27;20063;-77
2021/06/19 12:03:47;;;;;;;18.08;16.55;;;23.40;90.50;;;;;;5120154;27;20109;-78
2021/06/19 12:06:14;;;;;;;20.30;18.40;;;23.70;90.10;;;;;;5111712;27;20031;-78
2021/06/19 12:08:41;;;;;;;19.50;17.67;;;24.00;87.60;;;;;;5115939;27;20063;-78
2021/06/19 12:11:08;;;;;;;21.45;19.55;;;24.10;86.50;;;;;;5114865;27;20425;-79
2021/06/19 12:13:36;;;;;;;21.33;19.45;;;24.20;83.40;;;;;;5104126;27;20035;-79
2021/06/19 12:16:04;;;;;;;21.58;19.67;;;24.10;85.00;;;;;;5116611;27;20111;-80
2021/06/19 12:18:30;;;;;;;20.80;19.00;;;24.20;85.30;;;;;;5116180;27;20049;-81
2021/06/19 12:21:04;;;;;;;21.38;19.48;;;24.20;84.40;;;;;;5120601;27;20039;-78
2021/06/19 12:23:38;;;;;;;19.80;18.10;;;24.10;84.10;;;;;;5112329;27;20367;-80
2021/06/19 12:26:15;;;;;;;18.98;17.17;;;23.90;84.30;;;;;;5115675;27;20040;-81
2021/06/19 12:28:49;;;;;;;20.95;19.25;;;23.80;85.70;;;;;;5093314;27;20516;-80
2021/06/19 12:31:16;;;;;;;20.42;18.52;;;23.70;85.00;;;;;;5120103;27;20095;-79
2021/06/19 12:33:44;;;;;;;19.77;18.02;;;23.80;85.60;;;;;;5110426;27;20066;-79
2021/06/19 12:36:12;;;;;;;21.88;20.08;;;23.80;84.70;;;;;;5108447;27;20035;-80
2021/06/19 12:38:45;;;;;;;22.23;20.35;;;23.70;84.70;;;;;;5112653;27;20100;-78
2021/06/19 12:41:11;;;;;;;21.45;19.65;;;23.80;84.60;;;;;;5126871;27;22288;-80
2021/06/19 12:43:54;;;;;;;20.80;19.00;;;23.80;84.50;;;;;;5111946;27;20044;-78